»·PEaware :: N561PE KSMO-KONT

N561PE :: KSMO-KONT

FLIGHT INFORMATION

Flight Status: Arrived
Operator: Privately registered:
United States
More flights under this callsign
Pilot: Steve P. (28919)
Aircraft: CESSNA 208 CARAVAN
(C208)
More flights by this aircraft type
Origin: KSMO Santa Monica Mun
United States
Destination: KONT Ontario Intl
United States
More flights between these airports :: More routes between these airports
Route: SMO SMO125R V64 SLI V8 PDZ
File this flight plan on PilotEdge
Remarks: TEC Route SMOP9
Altitude:
(Current/Filed)
5,000ft
Speed:
(Current/Filed)
165kts
Departed: 13-May-20 05:19 PM
Arrived: 13-May-20 05:56 PM
Distance/Time
Traveled:
43nm/0:37
Distance/Time
To Go:
Arrived

Flight Plot

Page will automatically refresh every two minutes.


Map Options




Map Legend


Flown Route
Filed Route
Departure Airport
Arrival Airport
Navaid (VOR, NDB)
Fix

Horizontal Profiles

Position Reports

Time Latitude Longitude Heading Altitude Ground
Speed
13-May-20 16:21 34.017576 -118.445197 330 159ft 0kts
13-May-20 16:22 34.017576 -118.445197 330 159ft 0kts
13-May-20 16:23 34.017576 -118.445197 330 159ft 0kts
13-May-20 16:24 34.017576 -118.445197 330 159ft 0kts
13-May-20 16:25 34.017576 -118.445197 330 159ft 0kts
13-May-20 16:26 34.017576 -118.445197 330 159ft 0kts
13-May-20 16:27 34.017576 -118.445197 330 159ft 0kts
13-May-20 16:28 34.017576 -118.445197 330 159ft 0kts
13-May-20 16:29 34.017576 -118.445197 330 159ft 0kts
13-May-20 16:30 34.017576 -118.445197 330 159ft 0kts
13-May-20 16:31 34.017576 -118.445197 330 159ft 0kts
13-May-20 16:32 34.017576 -118.445197 330 159ft 0kts
13-May-20 16:33 34.017576 -118.445197 330 159ft 0kts
13-May-20 16:34 34.017576 -118.445197 330 159ft 0kts
13-May-20 16:36 34.017576 -118.445197 330 159ft 0kts
13-May-20 16:37 34.017576 -118.445197 330 159ft 0kts
13-May-20 16:38 34.017576 -118.445197 330 159ft 0kts
13-May-20 16:39 34.017576 -118.445197 330 159ft 0kts
13-May-20 16:40 34.017576 -118.445197 330 159ft 0kts
13-May-20 16:41 34.017576 -118.445197 330 159ft 0kts
13-May-20 16:42 34.017576 -118.445197 330 159ft 0kts
13-May-20 16:43 34.017576 -118.445197 330 159ft 0kts
13-May-20 16:44 34.017576 -118.445197 330 159ft 0kts
13-May-20 16:45 34.017576 -118.445197 330 159ft 0kts
13-May-20 16:46 34.017576 -118.445197 330 159ft 0kts
13-May-20 16:47 34.017576 -118.445197 330 159ft 0kts
13-May-20 16:48 34.017576 -118.445197 330 159ft 0kts
13-May-20 16:49 34.017576 -118.445197 330 159ft 0kts
13-May-20 16:50 34.017576 -118.445197 330 159ft 0kts
13-May-20 16:51 34.017576 -118.445197 330 159ft 0kts
13-May-20 16:52 34.017576 -118.445197 330 159ft 0kts
13-May-20 16:52 34.017576 -118.445197 330 159ft 0kts
13-May-20 16:54 34.017576 -118.445197 330 159ft 0kts
13-May-20 16:54 34.017576 -118.445197 330 159ft 0kts
13-May-20 16:55 34.017576 -118.445197 330 159ft 0kts
13-May-20 16:56 34.017576 -118.445197 330 159ft 0kts
13-May-20 16:57 34.017576 -118.445197 330 159ft 0kts
13-May-20 16:58 34.017576 -118.445197 330 159ft 0kts
13-May-20 16:59 34.017576 -118.445197 330 159ft 0kts
13-May-20 17:00 34.017576 -118.445197 330 159ft 0kts
13-May-20 17:01 34.017576 -118.445197 330 159ft 0kts
13-May-20 17:02 34.017576 -118.445197 330 159ft 0kts
13-May-20 17:03 34.017576 -118.445197 330 159ft 0kts
13-May-20 17:04 34.017576 -118.445197 330 159ft 0kts
13-May-20 17:05 34.017576 -118.445197 330 159ft 0kts
13-May-20 17:06 34.017577 -118.445197 330 159ft 0kts
13-May-20 17:07 34.017577 -118.445197 330 159ft 0kts
13-May-20 17:08 34.017577 -118.445197 330 159ft 0kts
13-May-20 17:09 34.017577 -118.445197 330 159ft 0kts
13-May-20 17:10 34.017577 -118.445197 330 159ft 0kts
13-May-20 17:11 34.017761 -118.445211 18 160ft 5kts
13-May-20 17:12 34.018547 -118.445131 339 162ft 0kts
13-May-20 17:13 34.018547 -118.445131 339 162ft 0kts
13-May-20 17:14 34.018547 -118.445131 339 162ft 0kts
13-May-20 17:15 34.018916 -118.445309 340 162ft 8kts
13-May-20 17:16 34.018868 -118.446815 296 160ft 0kts
13-May-20 17:17 34.018919 -118.446906 306 161ft 4kts
13-May-20 17:18 34.008279 -118.460678 228 745ft 113kts
13-May-20 17:19 33.986315 -118.486033 239 2733ft 115kts
13-May-20 17:20 33.978595 -118.520693 253 4627ft 107kts
13-May-20 17:21 33.971861 -118.558560 259 5012ft 128kts
13-May-20 17:22 33.967607 -118.601022 295 5009ft 130kts
13-May-20 17:23 34.001736 -118.594774 28 5011ft 146kts
13-May-20 17:24 34.021087 -118.557219 100 5012ft 149kts
13-May-20 17:25 34.016510 -118.522890 100 5009ft 149kts
13-May-20 17:26 34.009949 -118.473115 100 5006ft 149kts
13-May-20 17:27 33.989662 -118.432688 148 5005ft 143kts
13-May-20 17:28 33.956732 -118.403779 147 5007ft 144kts
13-May-20 17:29 33.924488 -118.374064 146 5011ft 145kts
13-May-20 17:30 33.892070 -118.343645 145 5012ft 146kts
13-May-20 17:31 33.859535 -118.312960 145 5012ft 147kts
13-May-20 17:32 33.827083 -118.282207 145 5010ft 147kts
13-May-20 17:33 33.794953 -118.251668 144 5009ft 146kts
13-May-20 17:34 33.778673 -118.208324 87 5009ft 152kts
13-May-20 17:35 33.779829 -118.156967 89 5005ft 152kts
13-May-20 17:36 33.781440 -118.105601 88 5003ft 152kts
13-May-20 17:37 33.783641 -118.054007 87 5001ft 151kts
13-May-20 17:38 33.796530 -118.005058 70 5008ft 151kts
13-May-20 17:39 33.810264 -117.956506 70 5008ft 151kts
13-May-20 17:40 33.824165 -117.906561 71 5006ft 157kts
13-May-20 17:41 33.838007 -117.856319 71 5005ft 157kts
13-May-20 17:42 33.851758 -117.806098 70 4999ft 157kts
13-May-20 17:43 33.862308 -117.754877 74 4991ft 155kts
13-May-20 17:44 33.873756 -117.704592 70 4982ft 153kts
13-May-20 17:45 33.886164 -117.655717 70 4975ft 150kts
13-May-20 17:46 33.898632 -117.607484 70 4968ft 148kts
13-May-20 17:47 33.919899 -117.569772 30 4915ft 111kts
13-May-20 17:48 33.943508 -117.552322 26 4189ft 101kts
13-May-20 17:49 33.968351 -117.532777 29 4029ft 110kts
13-May-20 17:50 33.996284 -117.514054 3 3937ft 112kts
13-May-20 17:51 34.028295 -117.510648 358 3089ft 120kts
13-May-20 17:52 34.055005 -117.521046 290 2484ft 85kts
13-May-20 17:53 34.054986 -117.549019 268 1564ft 79kts
13-May-20 17:54 34.054972 -117.573751 267 1120ft 75kts
13-May-20 17:55 34.054307 -117.589687 188 918ft 16kts
13-May-20 17:56 34.053862 -117.591753 268 916ft 14kts
13-May-20 17:57 34.053851 -117.597550 267 916ft 18kts

Navigation Log

Ident Type
Flight plan parsing failed, navigation log unavailable